aviador You're here:

LZPP Decoded Metar

PIESTANY in SLOVAKIA
Report Time2018-07-18 20:00:00
UTC Time2018-07-18 20:15:02
Flight Rules vfr VFR
Wind340° at 08 kt
W.Decomp.*RWY 01: 6.7 kt HW 4.4 kt LCW
W.Rank340° ranks 4
Current wind is below 340° avg. (8.1)
Visibility9999 m
Phenomena:N/A
Clouds:Few 010 Hf
Broken 040 Hf
Expected CloudBase > 800 ft AGL from Temp-Dew spread
Ceiling4,000 ft
Temp18°C (ISA +4)
Dew Point16°C (88% RH)
AAT17.1°C
QNH1011 hPa
Density Alt1,316 ft
Elevation528 ft
Report Wrong Elevation
Raw Report
LZPP 182000Z 34008KT 9999 FEW010 BKN040 18/16 Q1011=

Extra information for LZPP:More info

Metar Taf Metar & Taf Last 4 Metars F.Rules Stats Wind Profile Meteogram Temp Stats Airport Information Weather charts Add Link Nearby VenuesMetar ALERT Operation Metar Decoded Social comments